Flight Track Log - Related Links

Times and Time Zones

All times are in EDT time to prevent confusion due to time zone crossing. See the SWA1169 flight status page for this flight to view local times or setup timezone preferences in your user account.

Time Position Orientation Groundspeed Altitude Reporting Facility
EDT Latitude Longitude Course Direction KTS MPH feet Rate Location/Type
Sun 01:57:40 PM 33.8056 -118.5672 51° Northeast 272 313 9,300  Level Los Center
Sun 01:58:43 PM 33.8458 -118.4711 63° Northeast 344 396 12,300 2,880 Climbing Los Center
Sun 01:59:45 PM 33.9364 -118.4203 25° Northeast 358 412 15,300 2,667 Climbing Los Center
Sun 02:00:00 PM 34.3023 -117.7684 54° Northeast  Level FlightAware
Sun 02:00:49 PM 33.9961 -118.3225 54° Northeast 357 411 17,900  Level Los Center
Sun 02:01:00 PM 34.3659 -117.6516 59° Northeast  Level FlightAware
Sun 02:01:49 PM 34.0553 -118.2178 56° Northeast 371 427 20,600  Level Los Center
Sun 02:02:00 PM 34.4258 -117.5317 59° Northeast  Level FlightAware
Sun 02:02:51 PM 34.1167 -118.1100 55° Northeast 385 443 23,000  Level Los Center
Sun 02:03:00 PM 34.4935 -117.4181 51° Northeast  Level FlightAware
Sun 02:03:53 PM 34.1789 -117.9986 56° Northeast 395 455 25,000  Level Los Center
Sun 02:04:55 PM 34.2444 -117.8831 56° Northeast 410 472 26,800 1,839 Climbing Los Center
Sun 02:05:57 PM 34.3244 -117.7381 56° Northeast 429 494 28,800 1,597 Climbing Los Center
Sun 02:06:59 PM 34.3864 -117.6317 55° Northeast 446 513 30,100 1,392 Climbing Los Center
Sun 02:08:02 PM 34.4686 -117.5167 49° Northeast 452 520 31,700 1,776 Climbing Los Center
Sun 02:09:04 PM 34.5681 -117.3772 49° Northeast 457 526 33,800 1,887 Climbing Los Center
Sun 02:10:06 PM 34.6481 -117.2614 50° Northeast 456 525 35,600 1,500 Climbing Los Center
Sun 02:11:08 PM 34.7289 -117.1461 50° Northeast 455 524 36,900 1,306 Climbing Los Center
Sun 02:12:10 PM 34.8092 -117.0300 50° Northeast 454 522 38,300 1,016 Climbing Los Center
Sun 02:13:12 PM 34.9050 -116.8911 50° Northeast 451 519 39,000 339 Climbing Los Center
Sun 02:14:14 PM 34.9864 -116.7767 49° Northeast 451 519 39,000  Level Los Center
Sun 02:15:16 PM 35.0683 -116.6558 50° Northeast 458 527 39,000  Level Los Center
Sun 02:16:18 PM 35.1486 -116.5394 50° Northeast 456 525 39,000  Level Los Center
Sun 02:17:23 PM 35.2289 -116.4217 50° Northeast 455 524 39,000  Level Los Center
Sun 02:18:23 PM 35.3250 -116.2833 50° Northeast 450 518 39,000  Level Los Center
Sun 02:19:25 PM 35.4019 -116.1661 51° Northeast 447 514 39,000  Level Los Center
Sun 02:20:27 PM 35.4817 -116.0511 50° Northeast 444 511 39,000  Level Los Center
Sun 02:21:29 PM 35.5622 -115.9336 50° Northeast 445 512 39,000  Level Los Center
Sun 02:22:31 PM 35.6128 -115.8025 65° Northeast 424 488 39,000  Level Los Center
Sun 02:23:33 PM 35.6761 -115.6386 65° Northeast 439 505 39,000  Level Los Center
Sun 02:24:35 PM 35.7297 -115.5008 64° Northeast 443 510 39,000  Level Los Center
Sun 02:25:37 PM 35.7833 -115.3633 64° Northeast 445 512 39,000  Level Los Center
Sun 02:26:40 PM 35.8369 -115.2244 65° Northeast 451 519 39,000  Level Los Center
Sun 02:27:42 PM 35.8881 -115.0892 65° Northeast 441 507 39,000  Level Los Center
Sun 02:28:44 PM 35.9528 -114.9244 64° Northeast 443 510 39,000  Level Los Center
Sun 02:29:46 PM 36.0056 -114.7858 65° Northeast 445 512 39,000  Level Los Center
Sun 02:30:48 PM 36.0575 -114.6472 65° Northeast 446 513 39,000  Level Los Center
Sun 02:31:50 PM 36.1111 -114.5097 64° Northeast 446 513 39,000  Level Los Center
Sun 02:32:52 PM 36.1625 -114.3714 65° Northeast 446 513 39,000  Level Los Center
Sun 02:33:54 PM 36.2147 -114.2347 65° Northeast 445 512 39,000  Level Los Center
Sun 02:34:57 PM 36.2758 -114.0697 65° Northeast 444 511 39,000  Level Los Center
Sun 02:35:59 PM 36.3272 -113.9325 65° Northeast 443 510 39,000  Level Los Center
Sun 02:37:01 PM 36.3778 -113.7953 65° Northeast 440 506 39,000  Level Los Center
Sun 02:38:03 PM 36.4297 -113.6561 65° Northeast 440 506 39,000  Level Los Center
Sun 02:39:05 PM 36.4789 -113.5181 66° East 440 506 39,000  Level Los Center
Sun 02:40:07 PM 36.5308 -113.3772 65° Northeast 440 506 39,000  Level Los Center
Sun 02:41:09 PM 36.5917 -113.2122 65° Northeast 440 506 39,000  Level Los Center
Sun 02:42:11 PM 36.6417 -113.0736 66° East 440 506 39,000  Level Los Center
Sun 02:43:13 PM 36.6914 -112.9364 66° East 439 505 39,000  Level Los Center
Sun 02:44:16 PM 36.7414 -112.7972 66° East 440 506 39,000  Level Los Center
Sun 02:45:18 PM 36.7914 -112.6572 66° East 440 506 39,000  Level Los Center
Sun 02:46:20 PM 36.8511 -112.4897 66° East 440 506 39,000  Level Los Center
Sun 02:47:22 PM 36.9006 -112.3506 66° East 440 506 39,000  Level Los Center
Sun 02:48:24 PM 36.9500 -112.2114 66° East 440 506 39,000  Level Los Center
Sun 02:49:26 PM 36.9997 -112.0708 66° East 441 507 39,000  Level Los Center
Sun 02:50:28 PM 37.0483 -111.9306 66° East 442 509 39,000  Level Los Center
Sun 02:51:30 PM 37.1061 -111.7622 67° East 442 509 39,000  Level Los Center
Sun 02:52:30 PM 37.1650 -111.6267 61° Northeast 441 507 39,000  Level Denver Center
Sun 02:53:32 PM 37.2239 -111.4936 61° Northeast 440 506 39,000  Level Denver Center
Sun 02:54:35 PM 37.2822 -111.3586 61° Northeast 441 507 39,000  Level Denver Center
Sun 02:55:37 PM 37.3400 -111.2244 62° Northeast 440 506 39,000  Level Denver Center
Sun 02:56:39 PM 37.3978 -111.0903 62° Northeast 440 506 39,000  Level Denver Center
Sun 02:57:41 PM 37.4564 -110.9542 61° Northeast 441 507 39,000  Level Denver Center
Sun 02:58:43 PM 37.5267 -110.7922 61° Northeast 441 507 39,000  Level Denver Center
Sun 02:59:45 PM 37.5881 -110.6539 61° Northeast 447 514 39,000  Level Denver Center
Sun 03:00:47 PM 37.6503 -110.5092 61° Northeast 447 514 39,000  Level Denver Center
Sun 03:01:49 PM 37.7078 -110.3750 62° Northeast 450 518 39,000  Level Denver Center
Sun 03:02:51 PM 37.7739 -110.2194 62° Northeast 450 518 39,000  Level Denver Center
Sun 03:03:53 PM 37.8272 -110.0853 63° Northeast 446 513 39,000  Level Denver Center
Sun 03:04:55 PM 37.8700 -109.9172 72° East 447 514 39,000  Level Denver Center
Sun 03:05:57 PM 37.9072 -109.7744 72° East 447 514 39,000  Level Denver Center
Sun 03:06:59 PM 37.9439 -109.6311 72° East 447 514 39,000  Level Denver Center
Sun 03:08:02 PM 37.9875 -109.4639 72° East 447 514 39,000  Level Denver Center
Sun 03:09:03 PM 38.0239 -109.3197 72° East 447 514 39,000  Level Denver Center
Sun 03:10:06 PM 38.0678 -109.1500 72° East 450 518 39,000  Level Denver Center
Sun 03:11:08 PM 38.1044 -109.0039 72° East 451 519 39,000  Level Denver Center
Sun 03:12:10 PM 38.1481 -108.8353 72° East 450 518 39,000  Level Denver Center
Sun 03:13:12 PM 38.1850 -108.6867 72° East 455 524 39,000  Level Denver Center
Sun 03:14:14 PM 38.2258 -108.5122 73° East 457 526 39,000  Level Denver Center
Sun 03:15:16 PM 38.2633 -108.3689 72° East 456 525 39,000  Level Denver Center
Sun 03:16:18 PM 38.3261 -108.2058 64° Northeast 461 531 39,000  Level Denver Center
Sun 03:17:20 PM 38.3853 -108.0631 62° Northeast 454 522 39,000  Level Denver Center
Sun 03:18:22 PM 38.4469 -107.9089 63° Northeast 453 521 39,000  Level Denver Center
Sun 03:19:24 PM 38.5044 -107.7664 63° Northeast 453 521 39,000  Level Denver Center
Sun 03:20:26 PM 38.5647 -107.6117 63° Northeast 453 521 39,000  Level Denver Center
Sun 03:21:28 PM 38.6239 -107.4672 62° Northeast 454 522 39,000  Level Denver Center
Sun 03:22:31 PM 38.6806 -107.3217 63° Northeast 454 522 39,000  Level Denver Center
Sun 03:23:33 PM 38.7375 -107.1756 63° Northeast 456 525 39,000  Level Denver Center
Sun 03:24:35 PM 38.7933 -107.0306 64° Northeast 456 525 39,000  Level Denver Center
Sun 03:25:37 PM 38.8511 -106.8831 63° Northeast 462 532 39,000 -290 Level Denver Center
Sun 03:26:39 PM 38.9081 -106.7367 63° Northeast 462 532 38,400 -1,597 Descending Denver Center
Sun 03:27:41 PM 38.9753 -106.5592 64° Northeast 462 532 35,700 -2,710 Descending Denver Center
Sun 03:28:43 PM 39.0311 -106.4119 64° Northeast 462 532 32,800 -2,565 Descending Denver Center
Sun 03:29:45 PM 39.0331 -106.2475 89° East 464 534 30,400 -2,129 Descending Denver Center
Sun 03:30:47 PM 39.0242 -106.0708 94° East 447 514 28,400 -1,887 Descending Denver Center
Sun 03:31:49 PM 39.0181 -105.9203 93° East 427 491 26,500 -1,887 Descending Denver Center
Sun 03:32:51 PM 39.0106 -105.7667 94° East 417 480 24,500 -1,839 Descending Denver Center
Sun 03:33:53 PM 39.0072 -105.6197 92° East 414 476 22,700 -1,392 Descending Denver Center
Sun 03:34:56 PM 39.0244 -105.4767 81° East 408 470 21,600 -1,104 Descending Denver Center
Sun 03:35:58 PM 39.1197 -105.3736 40° Northeast 389 448 20,400 -1,065 Descending Denver Center
Sun 03:37:00 PM 39.2086 -105.2922 35° Northeast 371 427 19,400 -1,258 Descending Denver Center
Sun 03:38:02 PM 39.2861 -105.2200 36° Northeast 345 397 17,800 -1,161 Descending Denver Center
Sun 03:39:04 PM 39.3647 -105.1436 37° Northeast 323 372 17,000 -1,306 Descending Denver Center
Sun 03:40:06 PM 39.3900 -105.0364 73° East 322 371 15,100 -1,694 Descending Denver Center
Sun 03:41:08 PM 39.4342 -104.9264 63° Northeast 321 369 13,500 -968 Descending Denver Center
Sun 03:42:10 PM 39.4739 -104.8292 62° Northeast 308 354 13,100 -919 Descending Denver Center
Sun 03:43:12 PM 39.5358 -104.7575 42° Northeast 302 348 11,600 -1,548 Descending Denver Center
Sun 03:44:14 PM 39.6167 -104.7011 28° Northeast 308 354 9,900 -1,500 Descending Denver Center
Sun 03:45:16 PM 39.6800 -104.6606 26° Northeast 258 297 8,500 -1,355 Descending Denver Center
Sun 03:46:18 PM 39.7431 -104.6614 359° North 212 244 7,100 -1,161 Descending Denver Center
Sun 03:47:20 PM 39.7953 -104.6611 360° North 185 213 6,100 -823 Descending Denver Center
Sun 03:48:22 PM 39.8467 -104.6603 North 165 190 5,400 -677 Descending Denver Center
Sun 03:50:00 PM 39.8500 -104.6667 North  Level FlightAware
Sun 03:57:00 PM 39.8617 -104.6732 337° Northwest  Level Estimated
Sun 03:58:00 PM 39.8617 -104.6732 North  Level Estimated

Login

Don't have an account? Register now (free) for customized features, flight alerts, and more!